Time;durP1;ratioP1;P1;durP2;ratioP2;P2;SDS_P1;SDS_P2;PMS_P1;PMS_P2;Temp;Humidity;BMP_temperature;BMP_pressure;BME280_temperature;BME280_humidity;BME280_pressure;Samples;Min_cycle;Max_cycle;Signal;HPM_P1;HPM_P2
2021/11/12 00:04:03;;;;;;;44.13;21.73;;;2.90;99.90;;;;;;5033145;28;20037;-79
2021/11/12 00:14:49;;;;;;;45.80;19.88;;;2.90;99.90;;;;;;5032312;28;20044;-77
2021/11/12 00:17:21;;;;;;;38.35;19.60;;;2.90;99.90;;;;;;5032707;28;20025;-77
2021/11/12 00:19:50;;;;;;;36.22;19.05;;;2.70;99.90;;;;;;5032249;28;20045;-77
2021/11/12 00:22:15;;;;;;;44.88;19.33;;;2.90;99.90;;;;;;5032858;28;20080;-77
2021/11/12 00:24:41;;;;;;;37.55;17.33;;;2.90;99.90;;;;;;5031686;28;20026;-77
2021/11/12 00:27:08;;;;;;;35.30;16.50;;;2.90;99.90;;;;;;5032130;28;20071;-77
2021/11/12 00:29:41;;;;;;;34.65;16.48;;;2.80;99.90;;;;;;5031612;28;20022;-77
2021/11/12 00:40:34;;;;;;;37.83;17.00;;;2.70;99.90;;;;;;5032225;28;20453;-77
2021/11/12 00:45:26;;;;;;;37.67;17.42;;;2.60;99.90;;;;;;5031552;28;20117;-77
2021/11/12 00:47:56;;;;;;;36.78;17.08;;;2.70;99.90;;;;;;5031532;28;20073;-77
2021/11/12 00:55:42;;;;;;;38.05;17.75;;;2.70;99.90;;;;;;5031409;28;20025;-77
2021/11/12 00:58:13;;;;;;;38.40;16.95;;;2.70;99.90;;;;;;5031857;28;20025;-77
2021/11/12 01:00:41;;;;;;;34.00;15.30;;;2.60;99.90;;;;;;5014200;28;20045;-77
2021/11/12 01:03:06;;;;;;;34.97;16.48;;;2.70;99.90;;;;;;5031689;28;20086;-77
2021/11/12 01:05:32;;;;;;;39.10;17.00;;;2.60;99.90;;;;;;5031093;28;20057;-77
2021/11/12 01:08:00;;;;;;;37.08;17.88;;;2.70;99.90;;;;;;5013879;28;20079;-77
2021/11/12 01:10:26;;;;;;;40.05;18.77;;;2.80;99.90;;;;;;5031593;28;20029;-77
2021/11/12 01:12:53;;;;;;;40.08;17.65;;;2.80;99.90;;;;;;5031818;28;20026;-77
2021/11/12 01:15:20;;;;;;;48.08;17.35;;;4.40;99.90;;;;;;5031220;28;20021;-77
2021/11/12 01:17:47;;;;;;;36.47;16.85;;;2.70;99.90;;;;;;5031310;28;20017;-77
2021/11/12 01:20:16;;;;;;;33.10;15.75;;;2.80;99.90;;;;;;5031161;28;20030;-77
2021/11/12 01:22:42;;;;;;;33.30;16.55;;;2.80;99.90;;;;;;5031960;28;20022;-77
2021/11/12 01:25:10;;;;;;;33.05;16.55;;;2.70;99.90;;;;;;5034895;28;20029;-77
2021/11/12 01:27:41;;;;;;;32.35;15.98;;;2.70;99.90;;;;;;5035455;28;20035;-77
2021/11/12 01:30:08;;;;;;;33.60;16.33;;;2.40;99.90;;;;;;5034928;28;20113;-77
2021/11/12 01:32:34;;;;;;;32.50;15.43;;;2.70;99.90;;;;;;5035260;28;20021;-77
2021/11/12 01:35:05;;;;;;;34.67;16.30;;;2.80;99.90;;;;;;5034761;28;20036;-77
2021/11/12 01:37:32;;;;;;;37.50;16.73;;;2.60;99.90;;;;;;5035008;28;20017;-77
2021/11/12 01:40:00;;;;;;;34.15;16.60;;;2.50;99.90;;;;;;5034957;28;20099;-77
2021/11/12 01:42:48;;;;;;;33.30;15.95;;;2.60;99.90;;;;;;5035352;28;20032;-77
2021/11/12 01:45:14;;;;;;;30.15;14.68;;;2.70;99.90;;;;;;5034509;28;20087;-77
2021/11/12 01:47:59;;;;;;;33.67;14.60;;;2.60;99.90;;;;;;5017172;28;20053;-77
2021/11/12 01:50:27;;;;;;;27.85;15.38;;;2.60;99.90;;;;;;5015172;28;20026;-77
2021/11/12 01:52:57;;;;;;;26.90;14.95;;;2.60;99.90;;;;;;5021676;28;20029;-77
2021/11/12 02:00:28;;;;;;;23.27;12.77;;;2.60;99.90;;;;;;5034902;28;20065;-77
2021/11/12 02:02:56;;;;;;;28.65;14.55;;;2.50;99.90;;;;;;5034740;28;20474;-77
2021/11/12 02:05:23;;;;;;;25.95;14.00;;;2.60;99.90;;;;;;5034343;28;20034;-77
2021/11/12 02:07:51;;;;;;;27.55;13.30;;;2.40;99.90;;;;;;5034715;28;20025;-77
2021/11/12 02:10:21;;;;;;;28.85;13.35;;;2.50;99.90;;;;;;5034071;28;20441;-77
2021/11/12 02:15:12;;;;;;;26.13;13.50;;;2.40;99.90;;;;;;5034326;28;20029;-77
2021/11/12 02:17:42;;;;;;;22.88;12.35;;;2.30;99.90;;;;;;5034711;28;20024;-77
2021/11/12 02:20:19;;;;;;;25.13;13.25;;;2.30;99.90;;;;;;5034807;28;20102;-77
2021/11/12 02:22:49;;;;;;;27.48;14.18;;;2.40;99.90;;;;;;5017117;28;20030;-77
2021/11/12 02:25:26;;;;;;;26.92;12.95;;;2.40;99.90;;;;;;5034394;28;20474;-77
2021/11/12 02:27:57;;;;;;;27.88;12.82;;;2.40;99.90;;;;;;5034554;28;20035;-77
2021/11/12 02:30:27;;;;;;;25.67;12.88;;;2.20;99.90;;;;;;5017450;28;20033;-77
2021/11/12 02:33:15;;;;;;;23.55;12.18;;;2.30;99.90;;;;;;5034107;28;20021;-77
2021/11/12 02:35:43;;;;;;;27.20;13.15;;;2.20;99.90;;;;;;5033193;28;20402;-77
2021/11/12 02:38:10;;;;;;;22.98;12.40;;;2.20;99.90;;;;;;5016504;28;20025;-77
2021/11/12 02:40:38;;;;;;;23.67;12.20;;;2.00;99.90;;;;;;5034002;28;20086;-77
2021/11/12 02:43:04;;;;;;;22.95;12.48;;;2.20;99.90;;;;;;5034100;28;20026;-77
2021/11/12 02:45:30;;;;;;;25.40;13.20;;;3.40;99.90;;;;;;5033481;28;20084;-77
2021/11/12 02:47:56;;;;;;;27.15;13.05;;;1.90;99.90;;;;;;5033930;28;20037;-77
2021/11/12 02:50:22;;;;;;;25.05;12.98;;;2.00;99.90;;;;;;5033616;28;20030;-77
2021/11/12 02:52:56;;;;;;;26.13;12.82;;;2.00;99.90;;;;;;5033877;28;20037;-77
2021/11/12 02:55:22;;;;;;;28.73;14.00;;;2.10;99.90;;;;;;5033454;28;20711;-77
2021/11/12 02:57:48;;;;;;;26.50;12.88;;;1.90;99.90;;;;;;5033399;28;20391;-77
2021/11/12 03:00:15;;;;;;;28.00;12.60;;;2.00;99.90;;;;;;5016206;28;20037;-77
2021/11/12 03:02:41;;;;;;;31.88;14.70;;;2.00;99.90;;;;;;5016322;28;20021;-77
2021/11/12 03:05:08;;;;;;;29.02;13.85;;;2.00;99.90;;;;;;5033460;28;20025;-77
2021/11/12 03:07:33;;;;;;;32.08;14.85;;;2.00;99.90;;;;;;5033722;28;20056;-77
2021/11/12 03:09:59;;;;;;;32.38;14.63;;;2.00;99.90;;;;;;5033674;28;20041;-77
2021/11/12 03:12:25;;;;;;;29.20;14.73;;;2.00;99.90;;;;;;5033854;28;20044;-77
2021/11/12 03:14:52;;;;;;;30.77;14.98;;;2.10;99.90;;;;;;5033484;28;20493;-77
2021/11/12 03:17:17;;;;;;;31.35;14.55;;;2.10;99.90;;;;;;5034095;28;20025;-77
2021/11/12 03:19:44;;;;;;;29.90;14.82;;;2.10;99.90;;;;;;5033809;28;20565;-77
2021/11/12 03:22:15;;;;;;;32.63;14.23;;;2.10;99.90;;;;;;5034082;28;20036;-77
2021/11/12 03:24:54;;;;;;;30.67;14.55;;;2.10;99.90;;;;;;5033646;28;20555;-77
2021/11/12 03:27:35;;;;;;;31.75;14.00;;;2.10;99.90;;;;;;5033416;28;20038;-77
2021/11/12 03:59:58;;;;;;;30.05;15.30;;;2.10;99.90;;;;;;5034679;28;20482;-77
2021/11/12 04:05:14;;;;;;;35.13;16.40;;;2.40;99.90;;;;;;5032332;28;20029;-77
2021/11/12 04:18:46;;;;;;;34.72;16.70;;;2.40;99.90;;;;;;5019866;28;20477;-78
2021/11/12 05:56:19;;;;;;;27.95;14.50;;;2.20;99.90;;;;;;5038175;28;20044;-77
2021/11/12 05:58:45;;;;;;;27.08;13.48;;;2.20;99.90;;;;;;5037881;28;20018;-78
2021/11/12 06:01:10;;;;;;;27.67;13.90;;;2.20;99.90;;;;;;5038613;28;20473;-78
2021/11/12 06:03:36;;;;;;;29.88;14.63;;;2.20;99.90;;;;;;5038194;28;20042;-77
2021/11/12 06:06:01;;;;;;;29.38;13.80;;;2.20;99.90;;;;;;5036941;28;20029;-77
2021/11/12 06:08:27;;;;;;;31.27;14.55;;;2.10;99.90;;;;;;5037403;28;20060;-77
2021/11/12 06:10:53;;;;;;;31.00;15.32;;;2.20;99.90;;;;;;5035859;28;20053;-78
2021/11/12 06:13:18;;;;;;;28.25;13.52;;;2.30;99.90;;;;;;5037090;28;20394;-77
2021/11/12 06:15:44;;;;;;;24.92;12.80;;;2.30;99.90;;;;;;5037064;28;20390;-77
2021/11/12 06:18:10;;;;;;;28.10;13.05;;;2.20;99.90;;;;;;5036381;28;20502;-77
2021/11/12 06:20:36;;;;;;;27.73;13.80;;;2.20;99.90;;;;;;5037984;28;20133;-78
2021/11/12 06:23:02;;;;;;;26.75;13.30;;;2.10;99.90;;;;;;5011644;28;20053;-78
2021/11/12 06:25:28;;;;;;;26.90;14.40;;;2.20;99.90;;;;;;5029486;28;20039;-78
2021/11/12 06:27:53;;;;;;;26.80;13.77;;;2.40;99.90;;;;;;5037009;28;20410;-77
2021/11/12 06:30:19;;;;;;;27.00;14.43;;;2.20;99.90;;;;;;5035030;28;20041;-77
2021/11/12 06:32:45;;;;;;;33.42;16.13;;;2.20;99.90;;;;;;5035349;28;20024;-77
2021/11/12 06:35:11;;;;;;;34.95;15.90;;;2.20;99.90;;;;;;5034409;28;20045;-77
2021/11/12 06:37:37;;;;;;;31.70;14.40;;;2.40;99.90;;;;;;5036833;28;20025;-78
2021/11/12 06:40:04;;;;;;;30.85;15.65;;;2.30;99.90;;;;;;5018054;28;20060;-76
2021/11/12 06:42:35;;;;;;;35.13;15.68;;;2.30;99.90;;;;;;5034175;28;20508;-76
2021/11/12 06:50:29;;;;;;;29.48;14.45;;;2.40;99.90;;;;;;5026014;28;20503;-76
2021/11/12 06:52:55;;;;;;;33.88;15.05;;;2.20;99.90;;;;;;5033798;28;20104;-76
2021/11/12 06:55:21;;;;;;;27.33;13.85;;;2.40;99.90;;;;;;5032706;28;20037;-76
2021/11/12 06:57:47;;;;;;;28.23;15.02;;;2.30;99.90;;;;;;5033963;28;20052;-76
2021/11/12 07:00:17;;;;;;;29.75;14.65;;;2.70;99.90;;;;;;5004456;28;20046;-75
2021/11/12 07:02:44;;;;;;;30.63;14.90;;;2.20;99.90;;;;;;5022874;28;20133;-76
2021/11/12 07:05:11;;;;;;;31.00;14.73;;;2.20;99.90;;;;;;5014973;28;20092;-75
2021/11/12 07:07:37;;;;;;;29.67;15.18;;;2.30;99.90;;;;;;5007741;28;20056;-75
2021/11/12 07:10:04;;;;;;;29.85;15.85;;;2.30;99.90;;;;;;5030062;28;20053;-76
2021/11/12 07:12:29;;;;;;;28.23;15.30;;;2.30;99.90;;;;;;5019178;28;20022;-77
2021/11/12 07:14:55;;;;;;;30.80;14.77;;;2.20;99.90;;;;;;5009962;28;20402;-78
2021/11/12 07:17:21;;;;;;;29.13;14.38;;;3.50;99.90;;;;;;5012899;28;20037;-79
2021/11/12 07:19:46;;;;;;;30.65;14.23;;;2.10;99.90;;;;;;5033153;28;20033;-77
2021/11/12 07:22:13;;;;;;;27.35;14.90;;;2.30;99.90;;;;;;5035627;28;20033;-76
2021/11/12 07:24:39;;;;;;;31.00;16.63;;;2.30;99.90;;;;;;5032814;28;20033;-76
2021/11/12 07:27:07;;;;;;;27.63;15.45;;;2.30;99.90;;;;;;5033087;28;20096;-76
2021/11/12 07:29:35;;;;;;;27.75;14.48;;;2.30;99.90;;;;;;5033426;28;20052;-75
2021/11/12 07:32:01;;;;;;;25.77;13.95;;;2.30;99.90;;;;;;5033218;28;20056;-77
2021/11/12 07:34:28;;;;;;;31.23;17.05;;;2.40;99.90;;;;;;5034768;28;20075;-78
2021/11/12 07:37:08;;;;;;;27.65;13.88;;;2.40;99.90;;;;;;5034344;28;20048;-76
2021/11/12 07:42:11;;;;;;;26.10;14.38;;;2.30;99.90;;;;;;5032876;28;20033;-76
2021/11/12 07:44:41;;;;;;;24.88;13.60;;;2.40;99.90;;;;;;5028650;28;20079;-76
2021/11/12 07:47:14;;;;;;;27.45;13.80;;;2.40;99.90;;;;;;5032635;28;20506;-75
2021/11/12 07:49:44;;;;;;;22.85;12.23;;;2.40;99.90;;;;;;5032132;28;20030;-76
2021/11/12 07:52:11;;;;;;;23.27;12.82;;;2.40;99.90;;;;;;5032487;28;20064;-76
2021/11/12 07:54:38;;;;;;;23.77;12.95;;;3.50;99.90;;;;;;5019410;28;20029;-76
2021/11/12 07:57:05;;;;;;;21.25;13.25;;;2.40;99.90;;;;;;5024289;28;20057;-76
2021/11/12 07:59:31;;;;;;;20.13;11.88;;;2.40;99.90;;;;;;5030080;28;20075;-76
2021/11/12 08:01:56;;;;;;;22.92;13.25;;;2.50;99.90;;;;;;5031786;28;20464;-76
2021/11/12 08:04:23;;;;;;;23.85;12.90;;;2.40;99.90;;;;;;5032051;28;20026;-77
2021/11/12 08:06:51;;;;;;;25.50;14.10;;;2.40;99.90;;;;;;5031793;28;20053;-76
2021/11/12 08:09:19;;;;;;;23.40;13.10;;;2.50;99.90;;;;;;5031810;28;20055;-76
2021/11/12 08:11:50;;;;;;;23.90;13.95;;;2.20;99.90;;;;;;5032213;28;20071;-76
2021/11/12 08:14:28;;;;;;;24.45;13.52;;;3.40;99.90;;;;;;5032068;28;20482;-76
2021/11/12 08:19:41;;;;;;;28.67;14.05;;;2.60;99.90;;;;;;5028416;28;20057;-76
2021/11/12 08:22:14;;;;;;;24.52;13.98;;;2.60;99.90;;;;;;5031966;28;20021;-76
2021/11/12 08:24:53;;;;;;;24.33;13.57;;;2.60;99.90;;;;;;5031673;28;20033;-76
2021/11/12 08:27:44;;;;;;;22.95;13.63;;;2.60;99.90;;;;;;5032292;28;20032;-76
2021/11/12 08:43:37;;;;;;;25.25;13.52;;;3.50;99.90;;;;;;5054648;28;20030;-76
2021/11/12 08:48:37;;;;;;;23.65;13.63;;;3.00;99.90;;;;;;5051334;28;20009;-77
2021/11/12 08:51:06;;;;;;;25.02;13.95;;;2.80;99.90;;;;;;5033672;28;20482;-77
2021/11/12 08:53:32;;;;;;;25.15;15.15;;;3.40;99.90;;;;;;5037307;28;20105;-77
2021/11/12 08:55:58;;;;;;;23.02;14.43;;;3.00;99.90;;;;;;5041426;28;20071;-77
2021/11/12 08:58:24;;;;;;;22.85;13.05;;;2.90;99.90;;;;;;5014777;28;20029;-77
2021/11/12 09:00:50;;;;;;;24.80;14.27;;;2.80;99.90;;;;;;5035799;28;20048;-76
2021/11/12 09:03:15;;;;;;;20.92;12.65;;;3.00;99.90;;;;;;5052025;28;20029;-77
2021/11/12 09:05:41;;;;;;;23.42;13.38;;;2.90;99.90;;;;;;5008178;28;20036;-76
2021/11/12 09:08:07;;;;;;;24.33;12.95;;;3.20;99.90;;;;;;5051475;28;20029;-77
2021/11/12 09:10:33;;;;;;;22.77;13.15;;;3.10;99.90;;;;;;5046831;28;20048;-77
2021/11/12 09:15:49;;;;;;;18.83;12.27;;;3.20;99.90;;;;;;5052346;28;20075;-76
2021/11/12 09:18:17;;;;;;;18.52;11.90;;;3.20;99.90;;;;;;5034588;28;20036;-79
2021/11/12 09:20:43;;;;;;;20.65;11.90;;;3.20;99.90;;;;;;5048916;28;20036;-76
2021/11/12 09:23:09;;;;;;;19.25;12.02;;;3.00;99.90;;;;;;5047772;28;20033;-77
2021/11/12 09:25:35;;;;;;;19.40;11.75;;;3.90;99.90;;;;;;5046679;28;20029;-77
2021/11/12 09:28:00;;;;;;;19.02;11.52;;;3.30;99.90;;;;;;5046939;28;20076;-76
2021/11/12 09:30:30;;;;;;;18.70;11.20;;;3.30;99.90;;;;;;5043867;28;20402;-76
2021/11/12 09:32:56;;;;;;;19.88;11.05;;;3.90;99.90;;;;;;5043153;28;20014;-77
2021/11/12 09:35:23;;;;;;;22.02;12.40;;;3.40;99.90;;;;;;5039867;28;20056;-77
2021/11/12 09:37:48;;;;;;;18.10;12.27;;;4.20;99.90;;;;;;5042155;28;20052;-76
2021/11/12 09:40:16;;;;;;;17.98;11.43;;;4.10;99.90;;;;;;5041413;28;20498;-77
2021/11/12 09:42:43;;;;;;;18.50;12.02;;;3.20;99.90;;;;;;5038956;28;20386;-76
2021/11/12 09:45:10;;;;;;;19.05;13.07;;;3.30;99.90;;;;;;5034127;28;20030;-76
2021/11/12 09:47:37;;;;;;;21.65;12.80;;;3.40;99.90;;;;;;5035987;28;20507;-76
2021/11/12 09:50:09;;;;;;;17.90;12.63;;;3.60;99.90;;;;;;5032643;28;20025;-76
2021/11/12 09:52:35;;;;;;;27.58;13.18;;;3.50;99.90;;;;;;5016754;28;20017;-76
2021/11/12 09:55:03;;;;;;;18.85;12.38;;;3.60;99.90;;;;;;5032632;28;20034;-76
2021/11/12 09:57:30;;;;;;;19.05;12.60;;;5.60;99.90;;;;;;5038027;28;20097;-77
2021/11/12 10:00:01;;;;;;;20.23;12.80;;;3.90;99.90;;;;;;5041958;28;20041;-76
2021/11/12 10:02:29;;;;;;;19.30;12.80;;;3.90;99.90;;;;;;5040553;28;20467;-76
2021/11/12 10:04:55;;;;;;;19.35;12.35;;;3.90;99.90;;;;;;5018422;28;20022;-77
2021/11/12 10:07:22;;;;;;;20.73;12.48;;;3.80;99.90;;;;;;5031303;28;20454;-75
2021/11/12 10:10:20;;;;;;;17.88;12.45;;;3.80;99.90;;;;;;5034231;28;20026;-75
2021/11/12 10:12:49;;;;;;;22.35;14.05;;;3.60;99.90;;;;;;5032039;28;20046;-76
2021/11/12 10:15:33;;;;;;;24.88;14.65;;;3.40;99.90;;;;;;5036245;28;20385;-77
2021/11/12 10:18:07;;;;;;;21.58;14.30;;;3.50;99.90;;;;;;5048423;28;20002;-77
2021/11/12 10:20:33;;;;;;;24.77;14.30;;;3.60;99.90;;;;;;5051364;28;20025;-78
2021/11/12 10:22:59;;;;;;;19.08;13.23;;;3.60;99.90;;;;;;5036357;28;20037;-77
2021/11/12 10:25:25;;;;;;;19.17;13.10;;;3.80;99.90;;;;;;5017116;28;20045;-76
2021/11/12 10:27:53;;;;;;;18.75;12.77;;;3.80;99.90;;;;;;5032032;28;20022;-77
2021/11/12 10:30:28;;;;;;;18.13;12.60;;;3.90;99.90;;;;;;5033721;28;20085;-77
2021/11/12 10:32:56;;;;;;;19.50;13.48;;;3.80;99.90;;;;;;5032572;28;20041;-77
2021/11/12 10:35:28;;;;;;;19.58;12.95;;;3.70;99.90;;;;;;5033320;28;20030;-77
2021/11/12 10:38:05;;;;;;;18.00;12.85;;;3.60;99.90;;;;;;5018360;28;20038;-78
2021/11/12 10:40:31;;;;;;;19.92;12.93;;;3.70;99.90;;;;;;5034945;28;20041;-77
2021/11/12 10:42:58;;;;;;;18.33;13.13;;;4.00;99.90;;;;;;5032864;28;20006;-77
2021/11/12 10:45:30;;;;;;;19.13;12.75;;;3.80;99.90;;;;;;5026286;28;20046;-76
2021/11/12 10:47:59;;;;;;;17.45;12.32;;;4.10;99.90;;;;;;5015115;28;20029;-78
2021/11/12 10:50:30;;;;;;;18.40;12.73;;;3.70;99.90;;;;;;5032755;28;20018;-77
2021/11/12 10:53:06;;;;;;;22.85;13.70;;;2.90;99.90;;;;;;5017790;28;20037;-78
2021/11/12 10:55:34;;;;;;;19.95;14.23;;;3.70;99.90;;;;;;5033967;28;20052;-77
2021/11/12 10:58:07;;;;;;;20.25;13.52;;;3.80;99.90;;;;;;5034088;28;20026;-76
2021/11/12 11:00:37;;;;;;;18.52;12.27;;;5.70;99.90;;;;;;5032090;28;20025;-77
2021/11/12 11:03:08;;;;;;;18.52;12.93;;;5.30;99.90;;;;;;5033712;28;20026;-76
2021/11/12 11:05:44;;;;;;;19.52;12.55;;;5.00;99.90;;;;;;5032318;28;20026;-77
2021/11/12 11:08:25;;;;;;;17.38;12.32;;;4.20;99.90;;;;;;5032768;28;20088;-77
2021/11/12 11:10:52;;;;;;;20.02;12.93;;;4.10;99.90;;;;;;5032164;28;20041;-77
2021/11/12 11:13:21;;;;;;;18.80;12.90;;;4.30;99.90;;;;;;5033536;28;20086;-77
2021/11/12 11:15:52;;;;;;;17.90;12.32;;;4.50;99.90;;;;;;5031928;28;20026;-78
2021/11/12 11:18:28;;;;;;;20.13;13.63;;;4.30;99.90;;;;;;5028593;28;20097;-76
2021/11/12 11:21:25;;;;;;;18.17;12.35;;;4.40;99.90;;;;;;5031371;28;20026;-78
2021/11/12 11:24:07;;;;;;;17.80;11.80;;;4.50;99.90;;;;;;5031531;28;20655;-77
2021/11/12 11:26:48;;;;;;;17.77;12.70;;;4.30;99.90;;;;;;5029120;28;20026;-77
2021/11/12 11:29:17;;;;;;;18.48;12.35;;;4.40;99.90;;;;;;5028566;28;20041;-78
2021/11/12 11:31:44;;;;;;;17.27;12.38;;;5.40;99.90;;;;;;5031177;28;20029;-77
2021/11/12 11:34:10;;;;;;;19.02;12.48;;;5.10;99.90;;;;;;5034953;28;20030;-77
2021/11/12 11:36:39;;;;;;;20.60;13.75;;;5.20;99.90;;;;;;5051846;28;20479;-76
2021/11/12 11:39:08;;;;;;;17.55;13.02;;;4.90;99.90;;;;;;5051928;28;20049;-76
2021/11/12 11:41:34;;;;;;;17.83;12.43;;;4.70;99.90;;;;;;5052192;28;20056;-76
2021/11/12 11:44:00;;;;;;;19.40;13.77;;;6.30;99.90;;;;;;5052579;28;20036;-75
2021/11/12 11:46:32;;;;;;;22.70;14.68;;;4.90;99.90;;;;;;5043554;28;20076;-77
2021/11/12 11:49:00;;;;;;;18.85;13.80;;;4.10;99.90;;;;;;5032708;28;20116;-76
2021/11/12 11:51:37;;;;;;;22.48;14.00;;;4.20;99.90;;;;;;5033750;28;20033;-76
2021/11/12 11:54:09;;;;;;;19.75;14.32;;;4.20;99.90;;;;;;5029925;28;20018;-76
2021/11/12 11:56:47;;;;;;;19.83;13.77;;;4.20;99.90;;;;;;5031799;28;20048;-76
2021/11/12 11:59:29;;;;;;;19.27;14.18;;;4.20;99.90;;;;;;5033722;28;20033;-75
2021/11/12 12:01:56;;;;;;;22.30;14.93;;;4.50;99.90;;;;;;5037137;28;20540;-77
2021/11/12 12:04:23;;;;;;;20.17;14.13;;;4.30;99.90;;;;;;5032492;28;20079;-74
2021/11/12 12:07:01;;;;;;;20.65;13.80;;;4.30;99.90;;;;;;5012239;28;20061;-77
2021/11/12 12:09:54;;;;;;;21.13;14.45;;;4.60;99.90;;;;;;5019943;28;20032;-77
2021/11/12 12:12:34;;;;;;;21.15;14.55;;;4.10;99.90;;;;;;5005922;28;20052;-77
2021/11/12 12:15:12;;;;;;;21.98;13.82;;;4.00;99.90;;;;;;5034682;28;20064;-77
2021/11/12 12:17:47;;;;;;;19.98;14.38;;;5.10;99.90;;;;;;5035179;28;20398;-77
2021/11/12 12:20:34;;;;;;;23.02;14.45;;;4.50;99.90;;;;;;5014628;28;20021;-77
2021/11/12 13:25:07;;;;;;;32.47;21.50;;;4.00;99.90;;;;;;5031547;28;20132;-76
2021/11/12 13:27:32;;;;;;;30.58;19.58;;;4.10;99.90;;;;;;5031266;28;20032;-76
2021/11/12 13:29:58;;;;;;;31.27;19.30;;;4.10;99.90;;;;;;5034779;28;20406;-76
2021/11/12 13:32:24;;;;;;;35.08;21.40;;;3.90;99.90;;;;;;5035030;28;20040;-76
2021/11/12 13:34:50;;;;;;;28.38;19.83;;;4.00;99.90;;;;;;5034676;28;20022;-76
2021/11/12 13:37:15;;;;;;;31.15;20.08;;;4.80;99.90;;;;;;5035382;28;20026;-76
2021/11/12 13:39:41;;;;;;;31.95;21.17;;;4.10;99.90;;;;;;5036315;28;20025;-76
2021/11/12 13:42:09;;;;;;;28.02;19.65;;;4.00;99.90;;;;;;5035785;28;20034;-76
2021/11/12 13:44:38;;;;;;;31.58;20.55;;;4.10;99.90;;;;;;5017767;28;20044;-77
2021/11/12 13:47:15;;;;;;;32.60;21.23;;;4.20;99.90;;;;;;5035220;28;20437;-77
2021/11/12 13:49:45;;;;;;;33.25;22.58;;;4.20;99.90;;;;;;5034898;28;20032;-76
2021/11/12 13:52:15;;;;;;;29.17;20.30;;;4.10;99.90;;;;;;5016945;28;20091;-76
2021/11/12 13:54:42;;;;;;;28.10;20.20;;;4.20;99.90;;;;;;5018426;28;20037;-76
2021/11/12 13:57:11;;;;;;;30.35;20.75;;;4.20;99.90;;;;;;5027226;28;20029;-76
2021/11/12 13:59:53;;;;;;;30.00;20.77;;;5.00;99.90;;;;;;5034327;28;20053;-77
2021/11/12 14:02:19;;;;;;;30.65;20.65;;;4.10;99.90;;;;;;5033702;28;20498;-77
2021/11/12 14:04:45;;;;;;;35.75;22.33;;;5.20;99.90;;;;;;5033562;28;20087;-77
2021/11/12 14:07:24;;;;;;;32.05;20.63;;;4.00;99.90;;;;;;5016955;28;20038;-76
2021/11/12 14:10:10;;;;;;;38.67;22.05;;;4.10;99.90;;;;;;5034196;28;20519;-77
2021/11/12 14:12:54;;;;;;;38.80;22.67;;;4.00;99.90;;;;;;5033826;28;20033;-77
2021/11/12 14:15:32;;;;;;;38.05;23.58;;;4.00;99.90;;;;;;5016188;28;20402;-76
2021/11/12 14:21:08;;;;;;;40.10;24.23;;;4.10;99.90;;;;;;5034254;28;20025;-76
2021/11/12 14:45:44;;;;;;;32.80;21.13;;;4.00;99.90;;;;;;5035828;28;20033;-76
2021/11/12 14:48:33;;;;;;;33.72;20.40;;;5.10;99.90;;;;;;5034230;28;20033;-76
2021/11/12 14:51:05;;;;;;;32.03;20.70;;;3.60;99.90;;;;;;5033285;28;20036;-76
2021/11/12 14:56:07;;;;;;;38.17;22.58;;;3.60;99.90;;;;;;5024914;28;20056;-76
2021/11/12 14:58:35;;;;;;;39.90;21.38;;;3.70;99.90;;;;;;5031654;28;20087;-76
2021/11/12 15:01:06;;;;;;;38.45;22.38;;;3.60;99.90;;;;;;5033413;28;20037;-76
2021/11/12 15:03:32;;;;;;;39.42;22.92;;;3.60;99.90;;;;;;5033864;28;20029;-76
2021/11/12 15:05:58;;;;;;;38.53;21.40;;;3.60;99.90;;;;;;5032794;28;20075;-76
2021/11/12 15:08:25;;;;;;;41.20;24.13;;;3.70;99.90;;;;;;5033500;28;20112;-76
2021/11/12 15:10:52;;;;;;;38.05;22.65;;;3.50;99.90;;;;;;5033057;28;20048;-76
2021/11/12 15:13:19;;;;;;;43.00;23.70;;;3.70;99.90;;;;;;5033661;28;20017;-77
2021/11/12 15:15:45;;;;;;;42.78;23.20;;;3.50;99.90;;;;;;5032656;28;20028;-77
2021/11/12 15:18:12;;;;;;;42.42;24.83;;;3.40;99.90;;;;;;5030579;28;20390;-77
2021/11/12 15:20:39;;;;;;;42.70;22.10;;;3.70;99.90;;;;;;5023545;28;20067;-77
2021/11/12 15:33:25;;;;;;;53.15;31.35;;;3.50;99.90;;;;;;5033320;28;20052;-77
2021/11/12 15:35:52;;;;;;;39.55;22.95;;;3.50;99.90;;;;;;5032080;28;20033;-77
2021/11/12 15:38:32;;;;;;;40.35;22.90;;;3.60;99.90;;;;;;5032910;28;20013;-77
2021/11/12 15:41:04;;;;;;;39.03;23.27;;;3.50;99.90;;;;;;5032628;28;20426;-77
2021/11/12 15:43:40;;;;;;;40.67;23.92;;;3.40;99.90;;;;;;5012960;28;20057;-77
2021/11/12 15:48:38;;;;;;;37.22;22.48;;;3.60;99.90;;;;;;5016011;28;20104;-77
2021/11/12 16:22:39;;;;;;;44.50;22.88;;;3.40;99.90;;;;;;5030807;28;20029;-77
2021/11/12 16:27:33;;;;;;;49.92;24.77;;;3.30;99.90;;;;;;5031982;28;20040;-77
2021/11/12 16:30:04;;;;;;;49.17;24.83;;;4.50;99.90;;;;;;5028385;28;20029;-76
2021/11/12 16:32:38;;;;;;;55.25;26.40;;;4.30;99.90;;;;;;5016209;28;20550;-77
2021/11/12 16:35:06;;;;;;;52.30;25.85;;;3.30;99.90;;;;;;5006894;28;20608;-76
2021/11/12 16:37:32;;;;;;;49.22;23.58;;;3.30;99.90;;;;;;5021696;28;20030;-77
2021/11/12 16:40:05;;;;;;;51.28;24.70;;;3.20;99.90;;;;;;5019480;28;20018;-77
2021/11/12 16:45:17;;;;;;;47.08;21.83;;;3.40;99.90;;;;;;5026385;28;20029;-77
2021/11/12 16:58:27;;;;;;;48.67;23.00;;;3.20;99.90;;;;;;4979249;28;20129;-77
2021/11/12 17:46:47;;;;;;;57.13;24.80;;;3.00;99.90;;;;;;5011138;28;20119;-79
2021/11/12 18:02:41;;;;;;;52.20;23.42;;;3.20;99.90;;;;;;5051374;28;20101;-77
2021/11/12 18:05:23;;;;;;;60.83;25.35;;;4.90;99.90;;;;;;5051641;28;20021;-78
2021/11/12 18:08:05;;;;;;;61.07;24.17;;;3.30;99.90;;;;;;5056268;28;20022;-76
2021/11/12 18:19:55;;;;;;;52.70;23.75;;;4.50;99.90;;;;;;5031453;28;20402;-77
2021/11/12 18:24:57;;;;;;;65.10;25.23;;;3.20;99.90;;;;;;5018319;28;20056;-77
2021/11/12 21:48:38;;;;;;;31.60;15.65;;;2.90;99.90;;;;;;5036871;28;20049;-78
2021/11/12 21:51:05;;;;;;;31.90;15.43;;;2.80;99.90;;;;;;5035939;28;20037;-80
2021/11/12 21:53:32;;;;;;;27.00;13.85;;;2.90;99.90;;;;;;5037322;28;20025;-78
2021/11/12 21:55:59;;;;;;;26.55;13.70;;;2.70;99.90;;;;;;5037315;28;20025;-78
2021/11/12 21:58:25;;;;;;;25.40;13.40;;;2.70;99.90;;;;;;5037297;28;20505;-79
2021/11/12 22:00:52;;;;;;;24.10;12.07;;;2.70;99.90;;;;;;5037161;28;20069;-79
2021/11/12 22:03:18;;;;;;;25.90;12.65;;;2.60;99.90;;;;;;5037693;28;20040;-80
2021/11/12 22:05:44;;;;;;;24.38;12.95;;;2.60;99.90;;;;;;5036283;28;20030;-79
2021/11/12 22:08:10;;;;;;;24.92;12.93;;;2.90;99.90;;;;;;5037178;28;20021;-79
2021/11/12 22:10:36;;;;;;;23.38;12.07;;;2.70;99.90;;;;;;5036567;28;20037;-79
2021/11/12 22:13:03;;;;;;;27.27;12.77;;;2.70;99.90;;;;;;5037139;28;20076;-78
2021/11/12 22:15:29;;;;;;;24.30;12.35;;;2.60;99.90;;;;;;5037197;28;20100;-79
2021/11/12 22:17:55;;;;;;;26.77;13.05;;;2.60;99.90;;;;;;5036764;28;20025;-79
2021/11/12 22:20:21;;;;;;;24.60;13.50;;;2.60;99.90;;;;;;5036299;28;20029;-80
2021/11/12 22:22:48;;;;;;;25.23;11.80;;;2.60;99.90;;;;;;5037043;28;20037;-79
2021/11/12 22:25:13;;;;;;;26.08;13.23;;;2.60;99.90;;;;;;5036317;28;20034;-79
2021/11/12 22:27:39;;;;;;;25.77;13.77;;;2.70;99.90;;;;;;5036052;28;20032;-79
2021/11/12 22:30:07;;;;;;;21.75;12.70;;;2.70;99.90;;;;;;5017578;28;20406;-77
2021/11/12 22:32:33;;;;;;;23.30;12.27;;;2.60;99.90;;;;;;5036999;28;20033;-80
2021/11/12 22:34:59;;;;;;;25.23;13.25;;;2.70;99.90;;;;;;5036864;28;20021;-79
2021/11/12 22:37:24;;;;;;;33.08;14.10;;;2.70;99.90;;;;;;5041674;28;20049;-80
2021/11/12 22:39:50;;;;;;;22.75;12.02;;;3.50;99.90;;;;;;5041842;28;20486;-80
2021/11/12 22:42:17;;;;;;;25.98;13.75;;;3.10;99.90;;;;;;5041815;28;20041;-81
2021/11/12 22:44:44;;;;;;;30.80;12.75;;;2.70;99.90;;;;;;5038641;28;20405;-79
2021/11/12 22:47:11;;;;;;;23.88;12.43;;;2.80;99.90;;;;;;5039074;28;20021;-79
2021/11/12 22:49:36;;;;;;;25.58;12.63;;;2.70;99.90;;;;;;5038650;28;20048;-79
2021/11/12 22:52:03;;;;;;;33.15;13.07;;;2.80;99.90;;;;;;5037542;28;20502;-79
2021/11/12 22:54:29;;;;;;;22.45;12.35;;;2.80;99.90;;;;;;5038428;28;20037;-79
2021/11/12 22:56:55;;;;;;;29.95;13.77;;;2.70;99.90;;;;;;5038485;28;20029;-79
2021/11/12 22:59:20;;;;;;;24.98;14.13;;;4.20;99.90;;;;;;5037877;28;20021;-80
2021/11/12 23:01:46;;;;;;;27.52;13.82;;;2.80;99.90;;;;;;5038693;28;20033;-80
2021/11/12 23:04:12;;;;;;;29.88;14.20;;;2.80;99.90;;;;;;5038875;28;20177;-80
2021/11/12 23:06:38;;;;;;;27.83;13.20;;;3.70;99.90;;;;;;5038141;28;20383;-80
2021/11/12 23:09:04;;;;;;;26.00;13.30;;;2.80;99.90;;;;;;5020449;28;20033;-80
2021/11/12 23:11:30;;;;;;;24.75;11.73;;;3.00;99.90;;;;;;5031597;28;20033;-79